Time;durP1;ratioP1;P1;durP2;ratioP2;P2;SDS_P1;SDS_P2;PMS_P1;PMS_P2;Temp;Humidity;BMP_temperature;BMP_pressure;BME280_temperature;BME280_humidity;BME280_pressure;Samples;Min_cycle;Max_cycle;Signal;HPM_P1;HPM_P2
2021/05/13 00:02:07;;;;;;;23.08;10.95;;;;;;;5.39;100.00;100943.00;5227345;28;20028;-86
2021/05/13 00:04:37;;;;;;;26.05;12.50;;;;;;;5.41;100.00;100954.34;5227019;28;20112;-86
2021/05/13 00:07:08;;;;;;;27.23;12.10;;;;;;;5.39;100.00;100946.50;5227184;28;20396;-86
2021/05/13 00:09:41;;;;;;;26.60;12.90;;;;;;;5.46;100.00;100942.34;5227335;28;20116;-86
2021/05/13 00:14:58;;;;;;;26.63;13.77;;;;;;;5.61;100.00;100936.69;5227373;28;20039;-86
2021/05/13 00:17:28;;;;;;;29.92;13.85;;;;;;;5.65;100.00;100938.13;5226690;28;20052;-86
2021/05/13 00:19:59;;;;;;;21.27;11.25;;;;;;;5.65;100.00;100930.13;5226876;28;20099;-86
2021/05/13 00:22:29;;;;;;;25.42;11.85;;;;;;;5.70;100.00;100934.06;5227388;28;20025;-86
2021/05/13 00:25:00;;;;;;;23.88;13.63;;;;;;;5.74;100.00;100933.81;5227363;28;20032;-85
2021/05/13 00:27:30;;;;;;;20.00;11.40;;;;;;;5.74;100.00;100936.50;5225929;28;20029;-85
2021/05/13 00:30:02;;;;;;;22.88;11.75;;;;;;;5.75;100.00;100928.38;5239719;28;20029;-85
2021/05/13 00:32:36;;;;;;;30.15;13.48;;;;;;;5.83;100.00;100933.88;5227009;28;20024;-85
2021/05/13 00:35:09;;;;;;;20.15;10.73;;;;;;;5.83;100.00;100936.53;5226640;28;20083;-85
2021/05/13 00:37:40;;;;;;;19.15;10.00;;;;;;;5.84;100.00;100924.06;5226574;28;20079;-85
2021/05/13 00:40:13;;;;;;;24.85;10.95;;;;;;;5.89;100.00;100933.34;5226735;28;20500;-85
2021/05/13 00:42:43;;;;;;;22.80;11.15;;;;;;;5.94;100.00;100925.81;5226504;28;20400;-85
2021/05/13 00:45:15;;;;;;;23.70;11.52;;;;;;;5.96;100.00;100925.66;5226792;28;20032;-86
2021/05/13 00:48:01;;;;;;;22.80;11.98;;;;;;;5.95;100.00;100924.00;5226135;28;20039;-86
2021/05/13 00:50:33;;;;;;;19.63;10.68;;;;;;;5.90;100.00;100916.38;5226427;28;20460;-86
2021/05/13 00:53:06;;;;;;;26.23;11.65;;;;;;;6.00;100.00;100916.44;5226814;28;20499;-85
2021/05/13 00:55:38;;;;;;;31.40;11.93;;;;;;;6.02;100.00;100917.13;5226406;28;20025;-85
2021/05/13 00:58:09;;;;;;;24.48;12.95;;;;;;;6.03;100.00;100920.66;5226599;28;20025;-86
2021/05/13 01:00:44;;;;;;;21.75;12.10;;;;;;;6.03;100.00;100913.53;5224981;28;20491;-86
2021/05/13 01:03:14;;;;;;;28.83;14.55;;;;;;;6.04;100.00;100909.03;5226500;28;20028;-86
2021/05/13 01:05:45;;;;;;;23.63;12.30;;;;;;;6.08;100.00;100903.31;5226283;28;20453;-86
2021/05/13 01:08:18;;;;;;;21.88;11.10;;;;;;;6.13;100.00;100913.56;5226907;28;20040;-86
2021/05/13 01:10:48;;;;;;;28.95;12.43;;;;;;;6.18;100.00;100909.50;5212188;28;20037;-86
2021/05/13 01:13:52;;;;;;;22.02;13.23;;;;;;;6.27;100.00;100907.81;5225129;28;20470;-86
2021/05/13 01:16:52;;;;;;;26.58;13.88;;;;;;;6.39;100.00;100904.06;5225151;28;20033;-86
2021/05/13 01:19:22;;;;;;;23.48;12.50;;;;;;;6.40;100.00;100899.59;5225825;28;20025;-85
2021/05/13 01:21:53;;;;;;;25.45;11.80;;;;;;;6.44;100.00;100901.00;5226331;28;20070;-85
2021/05/13 01:24:24;;;;;;;24.75;12.98;;;;;;;6.52;100.00;100897.63;5225955;28;20025;-85
2021/05/13 01:26:55;;;;;;;32.03;15.05;;;;;;;6.51;100.00;100879.94;5208286;28;20021;-86
2021/05/13 01:29:27;;;;;;;30.63;14.07;;;;;;;6.57;100.00;100890.06;5225608;28;20029;-86
2021/05/13 01:31:58;;;;;;;26.20;14.18;;;;;;;6.62;100.00;100885.13;5225619;28;20056;-86
2021/05/13 01:34:28;;;;;;;27.48;14.40;;;;;;;6.60;100.00;100879.13;5225919;28;20064;-85
2021/05/13 01:36:59;;;;;;;25.50;13.52;;;;;;;6.60;100.00;100881.78;5225850;28;20029;-86
2021/05/13 01:39:30;;;;;;;29.40;13.82;;;;;;;6.62;100.00;100874.47;5226222;28;20424;-86
2021/05/13 01:42:01;;;;;;;27.77;14.63;;;;;;;6.60;100.00;100871.13;5225992;28;20032;-86
2021/05/13 01:44:32;;;;;;;26.42;13.55;;;;;;;6.63;100.00;100870.84;5226062;28;20074;-86
2021/05/13 01:47:03;;;;;;;30.23;14.23;;;;;;;6.67;100.00;100866.91;5225863;28;20029;-86
2021/05/13 01:49:34;;;;;;;22.98;13.70;;;;;;;6.68;100.00;100864.13;5225164;28;20053;-86
2021/05/13 01:52:04;;;;;;;28.50;14.90;;;;;;;6.70;100.00;100869.31;5225896;28;20032;-86
2021/05/13 01:54:46;;;;;;;26.83;13.68;;;;;;;6.70;100.00;100859.47;5225496;28;20033;-86
2021/05/13 01:57:17;;;;;;;23.63;12.27;;;;;;;6.74;100.00;100863.53;5225439;28;20147;-86
2021/05/13 01:59:48;;;;;;;22.35;11.65;;;;;;;6.72;100.00;100857.50;5225142;28;20021;-86
2021/05/13 02:02:21;;;;;;;20.75;11.90;;;;;;;6.79;100.00;100860.47;5224210;28;20025;-86
2021/05/13 02:04:52;;;;;;;30.05;16.77;;;;;;;6.81;100.00;100860.31;5224596;28;20025;-86
2021/05/13 02:07:25;;;;;;;25.05;14.55;;;;;;;6.82;100.00;100867.31;5224186;28;20029;-86
2021/05/13 02:09:56;;;;;;;24.15;13.43;;;;;;;6.81;100.00;100862.97;5225388;28;20075;-86
2021/05/13 02:12:27;;;;;;;25.73;13.15;;;;;;;6.81;100.00;100861.16;5225003;28;20068;-86
2021/05/13 02:14:58;;;;;;;24.38;14.40;;;;;;;6.81;100.00;100858.47;5225129;28;20053;-86
2021/05/13 02:17:29;;;;;;;29.52;15.30;;;;;;;6.86;100.00;100855.38;5225297;28;20032;-85
2021/05/13 02:19:59;;;;;;;30.65;15.43;;;;;;;6.87;100.00;100859.75;5225453;28;20079;-86
2021/05/13 02:22:30;;;;;;;27.65;15.35;;;;;;;6.86;100.00;100864.22;5225421;28;20028;-86
2021/05/13 02:25:00;;;;;;;32.85;16.90;;;;;;;6.83;100.00;100859.19;5224809;28;20029;-86
2021/05/13 02:27:31;;;;;;;31.88;15.48;;;;;;;6.80;100.00;100848.81;5227698;28;20560;-86
2021/05/13 02:30:05;;;;;;;30.10;15.00;;;;;;;6.76;100.00;100842.06;5228827;28;20027;-85
2021/05/13 02:32:36;;;;;;;32.50;15.15;;;;;;;6.77;100.00;100845.56;5228955;28;20480;-85
2021/05/13 02:35:08;;;;;;;33.65;17.15;;;;;;;6.83;100.00;100839.66;5228490;28;20029;-86
2021/05/13 02:37:39;;;;;;;38.42;18.13;;;;;;;6.84;100.00;100847.53;5229056;28;20032;-86
2021/05/13 02:40:13;;;;;;;36.10;18.00;;;;;;;6.78;100.00;100845.44;5229102;28;20107;-86
2021/05/13 02:42:45;;;;;;;36.70;18.40;;;;;;;6.74;100.00;100838.72;5229122;28;20120;-85
2021/05/13 02:45:16;;;;;;;37.00;18.15;;;;;;;6.68;100.00;100840.13;5228727;28;20079;-86
2021/05/13 02:47:46;;;;;;;38.45;17.85;;;;;;;6.66;100.00;100841.22;5228319;28;20032;-86
2021/05/13 02:50:17;;;;;;;30.25;14.90;;;;;;;6.66;100.00;100835.91;5227197;28;20472;-85
2021/05/13 02:52:48;;;;;;;33.38;17.13;;;;;;;6.76;100.00;100836.72;5228827;28;20021;-85
2021/05/13 02:55:18;;;;;;;35.55;17.98;;;;;;;6.74;100.00;100828.88;5228605;28;20081;-86
2021/05/13 02:57:49;;;;;;;34.15;17.70;;;;;;;6.68;100.00;100832.13;5228604;28;20357;-85
2021/05/13 03:00:27;;;;;;;31.85;17.17;;;;;;;6.60;100.00;100818.66;5228264;28;20036;-85
2021/05/13 03:02:58;;;;;;;30.63;15.68;;;;;;;6.54;100.00;100826.38;5243955;28;20032;-86
2021/05/13 03:05:28;;;;;;;37.63;16.55;;;;;;;6.47;100.00;100824.25;5228304;28;20083;-85
2021/05/13 03:08:02;;;;;;;37.45;18.77;;;;;;;6.40;100.00;100822.31;5228454;28;20013;-86
2021/05/13 03:13:03;;;;;;;28.92;15.20;;;;;;;6.15;100.00;100805.03;5228364;28;20038;-86
2021/05/13 03:15:34;;;;;;;38.88;18.42;;;;;;;6.16;100.00;100809.38;5228156;28;20500;-85
2021/05/13 03:18:05;;;;;;;31.58;17.08;;;;;;;6.20;100.00;100808.97;5228269;28;20080;-85
2021/05/13 03:20:39;;;;;;;46.67;20.65;;;;;;;6.16;100.00;100806.72;5214496;28;20040;-86
2021/05/13 03:23:11;;;;;;;36.45;17.35;;;;;;;6.07;100.00;100803.03;5227974;28;20051;-85
2021/05/13 03:25:46;;;;;;;39.22;18.98;;;;;;;6.04;100.00;100803.34;5226836;28;20484;-85
2021/05/13 03:28:17;;;;;;;44.17;19.55;;;;;;;5.93;100.00;100801.66;5227894;28;20500;-86
2021/05/13 03:30:47;;;;;;;46.15;21.20;;;;;;;5.84;100.00;100794.44;5227691;28;20068;-85
2021/05/13 03:33:18;;;;;;;42.45;20.42;;;;;;;5.76;100.00;100796.09;5227787;28;20021;-85
2021/05/13 03:35:49;;;;;;;44.55;19.00;;;;;;;5.75;100.00;100789.94;5227598;28;20029;-86
2021/05/13 03:38:20;;;;;;;50.78;23.00;;;;;;;5.67;100.00;100792.41;5226493;28;20017;-86
2021/05/13 03:40:50;;;;;;;44.97;21.13;;;;;;;5.59;100.00;100794.94;5226773;28;20029;-85
2021/05/13 03:43:21;;;;;;;50.03;21.52;;;;;;;5.50;100.00;100798.41;5227466;28;20040;-85
2021/05/13 03:45:51;;;;;;;42.65;20.02;;;;;;;5.46;100.00;100793.34;5227553;28;20594;-86
2021/05/13 03:48:22;;;;;;;36.60;17.50;;;;;;;5.48;100.00;100787.06;5227497;28;20053;-86
2021/05/13 03:50:52;;;;;;;39.78;18.25;;;;;;;5.44;100.00;100789.97;5226694;28;20100;-86
2021/05/13 03:53:23;;;;;;;33.92;15.88;;;;;;;5.42;100.00;100788.41;5227278;28;20025;-86
2021/05/13 03:55:53;;;;;;;42.95;21.25;;;;;;;5.38;100.00;100781.72;5226911;28;20021;-85
2021/05/13 03:58:28;;;;;;;48.90;21.98;;;;;;;5.33;100.00;100779.44;5227174;28;20017;-85
2021/05/13 04:03:29;;;;;;;57.92;23.60;;;;;;;5.34;100.00;100781.13;5227270;28;20052;-86
2021/05/13 04:05:59;;;;;;;42.10;20.45;;;;;;;5.33;100.00;100775.94;5227153;28;20060;-86
2021/05/13 04:08:30;;;;;;;46.78;19.45;;;;;;;5.36;100.00;100779.16;5226955;28;20032;-85
2021/05/13 04:11:00;;;;;;;48.40;20.30;;;;;;;5.36;100.00;100775.66;5227126;28;20380;-86
2021/05/13 04:13:31;;;;;;;59.17;25.55;;;;;;;5.39;100.00;100775.41;5227317;28;20059;-86
2021/05/13 04:16:06;;;;;;;61.72;25.40;;;;;;;5.44;100.00;100783.81;5226846;28;20025;-86
2021/05/13 04:18:37;;;;;;;54.65;24.73;;;;;;;5.50;100.00;100774.47;5227244;28;20021;-85
2021/05/13 04:21:07;;;;;;;62.28;26.55;;;;;;;5.56;100.00;100779.22;5226692;28;20388;-85
2021/05/13 04:23:38;;;;;;;52.83;23.33;;;;;;;5.59;100.00;100774.50;5226543;28;20107;-85
2021/05/13 04:26:08;;;;;;;51.70;23.48;;;;;;;5.69;100.00;100777.19;5226823;28;20056;-85
2021/05/13 04:28:38;;;;;;;48.08;21.38;;;;;;;5.77;100.00;100768.50;5226612;28;20056;-85
2021/05/13 04:31:09;;;;;;;45.78;20.33;;;;;;;5.78;100.00;100768.38;5226792;28;20052;-85
2021/05/13 04:33:39;;;;;;;45.90;20.27;;;;;;;5.84;100.00;100766.97;5226442;28;20039;-85
2021/05/13 04:36:10;;;;;;;46.17;22.65;;;;;;;5.90;100.00;100769.09;5226202;28;20029;-85
2021/05/13 04:38:41;;;;;;;57.70;27.00;;;;;;;6.09;100.00;100771.81;5226293;28;20025;-85
2021/05/13 04:41:11;;;;;;;59.95;27.20;;;;;;;6.25;100.00;100765.09;5226441;28;20029;-86
2021/05/13 04:43:41;;;;;;;67.80;28.98;;;;;;;6.43;100.00;100766.06;5226157;28;20080;-86
2021/05/13 04:46:12;;;;;;;69.28;29.95;;;;;;;6.52;100.00;100770.53;5226153;28;20421;-85
2021/05/13 04:51:24;;;;;;;64.75;27.85;;;;;;;6.63;100.00;100765.06;5226203;28;20419;-86
2021/05/13 04:53:55;;;;;;;60.25;24.95;;;;;;;6.71;100.00;100762.50;5226171;28;20504;-86
2021/05/13 04:56:26;;;;;;;44.70;22.45;;;;;;;6.71;100.00;100759.00;5225971;28;20028;-86
2021/05/13 04:58:57;;;;;;;42.10;19.73;;;;;;;6.72;100.00;100766.00;5225641;28;20051;-86
2021/05/13 05:01:28;;;;;;;46.05;19.95;;;;;;;6.78;100.00;100765.47;5225959;28;20882;-86
2021/05/13 05:03:58;;;;;;;48.65;23.17;;;;;;;6.98;100.00;100767.09;5225854;28;20024;-86
2021/05/13 05:06:28;;;;;;;43.55;21.02;;;;;;;7.12;100.00;100767.59;5225903;28;20545;-86
2021/05/13 05:08:59;;;;;;;45.97;20.92;;;;;;;7.03;100.00;100764.00;5225756;28;20025;-86
2021/05/13 05:11:30;;;;;;;44.10;21.50;;;;;;;7.09;100.00;100771.41;5225624;28;20041;-86
2021/05/13 05:14:00;;;;;;;46.35;22.88;;;;;;;7.18;100.00;100761.69;5225757;28;20024;-86
2021/05/13 05:16:31;;;;;;;46.67;22.38;;;;;;;7.32;100.00;100761.19;5225953;28;20020;-86
2021/05/13 05:19:01;;;;;;;52.90;26.10;;;;;;;7.56;100.00;100757.16;5225956;28;20025;-86
2021/05/13 05:21:32;;;;;;;52.28;24.48;;;;;;;7.89;100.00;100756.53;5224433;28;20020;-86
2021/05/13 05:24:02;;;;;;;69.63;33.50;;;;;;;8.72;100.00;100764.31;5225530;28;20078;-86
2021/05/13 05:26:34;;;;;;;46.13;25.70;;;;;;;9.87;100.00;100766.53;5225529;28;20039;-87
2021/05/13 05:29:05;;;;;;;36.65;21.08;;;;;;;10.74;100.00;100759.75;5221589;28;20020;-86
2021/05/13 05:31:35;;;;;;;35.38;18.27;;;;;;;11.02;100.00;100746.81;5224633;28;20495;-86
2021/05/13 05:34:06;;;;;;;33.20;17.40;;;;;;;11.26;100.00;100743.22;5225024;28;20496;-87
2021/05/13 05:36:37;;;;;;;31.27;17.45;;;;;;;11.72;100.00;100745.19;5225156;28;20067;-87
2021/05/13 05:39:07;;;;;;;31.60;18.20;;;;;;;11.59;100.00;100743.91;5225144;28;20032;-87
2021/05/13 05:41:38;;;;;;;32.63;17.75;;;;;;;11.89;100.00;100744.94;5224678;28;20025;-87
2021/05/13 05:44:09;;;;;;;30.20;17.27;;;;;;;12.27;100.00;100739.66;5224264;28;20029;-86
2021/05/13 05:46:40;;;;;;;29.83;17.52;;;;;;;12.55;100.00;100742.63;5225440;28;20036;-86
2021/05/13 05:49:11;;;;;;;28.80;17.30;;;;;;;12.91;100.00;100741.97;5224599;28;20021;-86
2021/05/13 05:51:41;;;;;;;30.15;16.77;;;;;;;13.36;100.00;100737.44;5224449;28;20039;-87
2021/05/13 05:54:12;;;;;;;26.20;16.65;;;;;;;13.65;100.00;100736.56;5225062;28;20383;-86
2021/05/13 05:56:42;;;;;;;25.30;15.55;;;;;;;13.65;100.00;100736.56;5224538;28;20142;-87
2021/05/13 05:59:13;;;;;;;27.80;16.15;;;;;;;13.46;100.00;100738.84;5224346;28;20056;-86
2021/05/13 06:01:43;;;;;;;24.35;15.13;;;;;;;13.79;100.00;100738.38;5223620;28;20380;-87
2021/05/13 06:04:14;;;;;;;23.75;15.50;;;;;;;14.13;100.00;100732.31;5224739;28;20074;-86
2021/05/13 06:06:44;;;;;;;25.75;15.13;;;;;;;14.19;100.00;100736.13;5224226;28;20042;-87
2021/05/13 06:09:15;;;;;;;23.95;13.88;;;;;;;14.12;100.00;100741.47;5223928;28;20017;-87
2021/05/13 06:11:45;;;;;;;22.20;14.23;;;;;;;14.20;100.00;100732.38;5223521;28;20102;-87
2021/05/13 06:14:16;;;;;;;22.73;13.85;;;;;;;13.79;100.00;100737.56;5224902;28;20116;-87
2021/05/13 06:16:46;;;;;;;29.15;13.68;;;;;;;13.84;100.00;100733.25;5224292;28;20041;-87
2021/05/13 06:19:19;;;;;;;25.60;13.50;;;;;;;13.98;100.00;100739.63;5223207;28;20017;-87
2021/05/13 06:21:49;;;;;;;25.15;12.98;;;;;;;14.04;100.00;100729.94;5225054;28;20016;-87
2021/05/13 06:24:20;;;;;;;29.33;14.30;;;;;;;14.22;100.00;100728.47;5224492;28;20547;-87
2021/05/13 06:27:01;;;;;;;20.38;12.05;;;;;;;14.55;100.00;100721.72;5225168;28;20028;-87
2021/05/13 06:29:31;;;;;;;19.13;11.35;;;;;;;14.42;100.00;100717.03;5223992;28;20040;-87
2021/05/13 06:32:02;;;;;;;20.88;12.90;;;;;;;14.33;100.00;100710.94;5223956;28;20021;-87
2021/05/13 06:34:32;;;;;;;17.63;10.95;;;;;;;14.64;100.00;100709.75;5223415;28;20071;-87
2021/05/13 06:37:03;;;;;;;17.33;10.40;;;;;;;14.62;100.00;100709.97;5224130;28;20021;-87
2021/05/13 06:39:34;;;;;;;18.75;10.43;;;;;;;15.03;100.00;100710.03;5224258;28;20024;-86
2021/05/13 06:42:05;;;;;;;18.23;10.57;;;;;;;14.86;100.00;100706.00;5224096;28;20032;-87
2021/05/13 06:44:35;;;;;;;19.17;11.60;;;;;;;14.79;100.00;100702.41;5223871;28;20033;-87
2021/05/13 06:47:06;;;;;;;19.73;11.27;;;;;;;14.81;100.00;100705.75;5223485;28;20032;-90
2021/05/13 06:49:38;;;;;;;20.45;11.45;;;;;;;14.87;100.00;100702.25;5224292;28;20021;-86
2021/05/13 06:52:08;;;;;;;18.58;10.57;;;;;;;14.64;100.00;100697.09;5224919;28;20024;-87
2021/05/13 06:54:39;;;;;;;19.33;10.02;;;;;;;14.69;100.00;100700.03;5223612;28;20086;-87
2021/05/13 06:57:09;;;;;;;25.15;11.50;;;;;;;14.90;100.00;100704.53;5223614;28;20488;-87
2021/05/13 06:59:42;;;;;;;20.08;11.73;;;;;;;14.80;100.00;100692.41;5224424;28;20025;-87
2021/05/13 07:02:12;;;;;;;18.08;10.93;;;;;;;14.81;100.00;100707.59;5224148;28;20426;-88
2021/05/13 07:04:43;;;;;;;14.70;10.48;;;;;;;14.74;100.00;100704.84;5223202;28;20121;-88
2021/05/13 07:07:13;;;;;;;20.35;11.02;;;;;;;14.50;100.00;100701.53;5223734;28;20056;-88
2021/05/13 07:09:44;;;;;;;20.48;11.15;;;;;;;14.39;100.00;100703.91;5223802;28;20033;-89
2021/05/13 07:12:15;;;;;;;20.13;10.23;;;;;;;14.58;100.00;100700.59;5223336;28;20341;-87
2021/05/13 07:14:45;;;;;;;17.83;11.05;;;;;;;14.67;100.00;100698.59;5226389;28;20020;-88
2021/05/13 07:17:16;;;;;;;19.63;10.55;;;;;;;14.90;100.00;100703.72;5228431;28;20518;-87
2021/05/13 07:19:46;;;;;;;23.67;10.65;;;;;;;14.85;100.00;100698.91;5227126;28;20017;-89
2021/05/13 07:22:18;;;;;;;19.35;9.23;;;;;;;15.06;100.00;100695.31;5227238;28;20029;-89
2021/05/13 07:24:49;;;;;;;15.38;9.52;;;;;;;14.89;100.00;100702.03;5227152;28;20032;-88
2021/05/13 07:27:21;;;;;;;18.23;9.98;;;;;;;14.82;100.00;100702.00;5227364;28;20037;-89
2021/05/13 07:29:51;;;;;;;16.92;8.23;;;;;;;14.95;100.00;100699.38;5225970;28;20423;-87
2021/05/13 07:32:22;;;;;;;14.50;7.78;;;;;;;15.18;100.00;100696.41;5227042;28;20327;-88
2021/05/13 07:34:52;;;;;;;17.95;8.43;;;;;;;15.32;100.00;100701.88;5226652;28;20118;-88
2021/05/13 07:37:25;;;;;;;19.05;7.55;;;;;;;15.56;100.00;100706.75;5225772;28;20025;-89
2021/05/13 07:39:55;;;;;;;15.50;7.80;;;;;;;15.36;100.00;100690.47;5226271;28;20060;-88
2021/05/13 07:42:26;;;;;;;16.48;8.10;;;;;;;15.34;100.00;100700.63;5234815;28;20487;-90
2021/05/13 07:44:56;;;;;;;14.80;7.50;;;;;;;15.65;100.00;100708.28;5224949;28;20444;-88
2021/05/13 07:47:28;;;;;;;14.77;7.03;;;;;;;16.03;100.00;100711.28;5226700;28;20023;-89
2021/05/13 07:49:58;;;;;;;17.92;7.65;;;;;;;15.92;100.00;100709.19;5226263;28;20021;-88
2021/05/13 07:52:29;;;;;;;15.07;7.28;;;;;;;16.00;100.00;100702.75;5227184;28;20029;-88
2021/05/13 07:55:00;;;;;;;13.93;6.30;;;;;;;16.15;100.00;100706.09;5226330;28;20029;-88
2021/05/13 07:57:31;;;;;;;13.32;6.35;;;;;;;16.55;100.00;100696.13;5220900;28;20380;-88
2021/05/13 08:00:04;;;;;;;12.60;5.57;;;;;;;16.30;100.00;100701.31;5226630;28;20021;-89
2021/05/13 08:02:35;;;;;;;14.75;5.65;;;;;;;16.80;100.00;100693.63;5226562;28;20365;-88
2021/05/13 08:05:06;;;;;;;13.10;5.18;;;;;;;17.34;100.00;100697.88;5208902;28;20025;-88
2021/05/13 08:07:37;;;;;;;19.50;6.40;;;;;;;18.09;100.00;100691.88;5226896;28;20447;-88
2021/05/13 08:10:09;;;;;;;10.57;4.60;;;;;;;18.43;100.00;100697.91;5225552;28;20035;-88
2021/05/13 08:12:39;;;;;;;11.63;4.30;;;;;;;17.94;97.87;100691.34;5226200;28;20021;-89
2021/05/13 08:15:12;;;;;;;8.18;4.20;;;;;;;18.42;96.33;100688.91;5225505;28;20040;-89
2021/05/13 08:17:44;;;;;;;11.50;4.80;;;;;;;18.58;92.80;100692.97;5226262;28;20032;-88
2021/05/13 08:20:16;;;;;;;11.60;4.65;;;;;;;18.89;91.20;100690.19;5225659;28;20021;-88
2021/05/13 08:22:48;;;;;;;12.15;6.18;;;;;;;19.02;91.61;100693.81;5225845;28;20098;-88
2021/05/13 08:25:20;;;;;;;15.23;5.10;;;;;;;18.79;85.39;100687.16;5225005;28;20107;-89
2021/05/13 08:27:50;;;;;;;9.90;4.90;;;;;;;19.05;88.80;100698.81;5225588;28;20025;-89
2021/05/13 08:30:21;;;;;;;10.30;5.25;;;;;;;19.13;79.88;100690.38;5224587;28;20031;-88
2021/05/13 08:32:51;;;;;;;16.10;5.18;;;;;;;19.02;100.00;100691.09;5225800;28;20024;-89
2021/05/13 08:35:22;;;;;;;10.32;4.10;;;;;;;19.48;73.81;100684.28;5225798;28;20484;-89
2021/05/13 08:37:53;;;;;;;10.73;3.78;;;;;;;19.23;76.85;100678.94;5225587;28;20572;-88
2021/05/13 08:40:23;;;;;;;8.93;2.88;;;;;;;19.79;61.45;100683.28;5225317;28;20020;-88
2021/05/13 08:42:54;;;;;;;12.45;2.85;;;;;;;19.86;60.28;100676.66;5224567;28;20044;-89
2021/05/13 08:45:27;;;;;;;10.93;3.10;;;;;;;19.30;64.68;100676.97;5225446;28;20071;-87
2021/05/13 08:47:57;;;;;;;6.88;2.53;;;;;;;19.17;65.77;100690.72;5224862;28;20023;-85
2021/05/13 08:50:28;;;;;;;8.00;2.80;;;;;;;19.25;61.98;100672.22;5220310;28;20473;-85
2021/05/13 08:53:02;;;;;;;5.80;2.42;;;;;;;18.71;63.57;100670.28;5224806;28;20024;-85
2021/05/13 08:55:34;;;;;;;6.63;2.85;;;;;;;18.69;71.81;100665.09;5224832;28;20392;-85
2021/05/13 08:58:07;;;;;;;8.38;2.50;;;;;;;19.30;66.72;100663.38;5224789;28;20028;-85
2021/05/13 09:00:38;;;;;;;4.30;2.13;;;;;;;19.88;58.73;100665.53;5224446;28;20032;-86
2021/05/13 09:03:08;;;;;;;8.70;2.40;;;;;;;20.18;61.36;100660.06;5224647;28;20024;-85
2021/05/13 09:05:49;;;;;;;4.82;2.00;;;;;;;20.62;57.68;100655.16;5224480;28;20400;-85
2021/05/13 09:08:21;;;;;;;7.95;2.00;;;;;;;20.52;54.40;100666.66;5224755;28;20037;-86
2021/05/13 09:10:52;;;;;;;11.05;3.10;;;;;;;20.24;57.25;100666.47;5225105;28;20009;-86
2021/05/13 09:13:27;;;;;;;15.18;2.33;;;;;;;20.16;62.00;100662.19;5225544;28;20025;-85
2021/05/13 09:15:57;;;;;;;6.45;1.88;;;;;;;19.66;59.83;100662.50;5224654;28;20029;-85
2021/05/13 09:18:31;;;;;;;9.50;2.70;;;;;;;19.89;66.49;100659.88;5224522;28;20059;-86
2021/05/13 09:21:03;;;;;;;7.45;1.73;;;;;;;19.61;57.39;100660.47;5225158;28;20033;-85
2021/05/13 09:23:36;;;;;;;5.82;1.70;;;;;;;19.30;58.59;100660.66;5225820;28;20468;-86
2021/05/13 09:26:11;;;;;;;8.43;2.38;;;;;;;18.95;57.86;100661.28;5223939;28;20043;-85
2021/05/13 09:28:43;;;;;;;8.77;1.98;;;;;;;18.94;60.60;100658.78;5211921;28;20057;-86
2021/05/13 09:31:39;;;;;;;5.93;2.10;;;;;;;19.09;58.56;100667.41;5217881;28;20024;-86
2021/05/13 09:34:10;;;;;;;;;;;;;;;19.17;60.40;100655.38;5232219;28;20031;-85
2021/05/13 09:36:40;;;;;;;5.80;1.60;;;;;;;18.78;59.77;100655.59;5222342;28;19916;-86
2021/05/13 09:39:23;;;;;;;9.65;1.92;;;;;;;19.11;62.09;100651.69;5223429;28;20076;-87
2021/05/13 09:41:59;;;;;;;8.23;2.00;;;;;;;19.21;71.50;100649.25;5222548;28;20476;-87
2021/05/13 09:44:32;;;;;;;6.80;1.85;;;;;;;18.99;62.26;100662.47;5223922;28;20055;-86
2021/05/13 09:47:12;;;;;;;6.97;1.90;;;;;;;19.02;58.83;100650.31;5222149;28;20024;-87
2021/05/13 09:49:57;;;;;;;7.43;1.95;;;;;;;18.78;59.38;100655.59;5221635;28;20025;-86
2021/05/13 09:52:52;;;;;;;8.23;2.17;;;;;;;18.64;63.16;100659.47;5223685;28;20029;-87
2021/05/13 09:55:29;;;;;;;6.95;2.40;;;;;;;18.89;64.60;100660.28;5223994;28;20025;-87
2021/05/13 09:58:01;;;;;;;5.53;1.80;;;;;;;19.03;62.24;100663.69;5217274;28;20029;-87
2021/05/13 10:00:42;;;;;;;5.65;1.90;;;;;;;19.10;60.09;100653.56;5223803;28;20056;-86
2021/05/13 10:03:19;;;;;;;9.43;2.33;;;;;;;18.73;66.76;100660.06;5222382;28;20064;-86
2021/05/13 10:05:52;;;;;;;9.63;1.98;;;;;;;18.48;62.45;100660.03;5223292;28;20096;-85
2021/05/13 10:08:23;;;;;;;6.38;1.88;;;;;;;18.38;59.62;100655.94;5223437;28;20608;-87
2021/05/13 10:10:54;;;;;;;7.40;1.75;;;;;;;18.44;58.95;100653.38;5222731;28;20082;-86
2021/05/13 10:13:30;;;;;;;9.15;1.98;;;;;;;18.35;62.21;100650.94;5223116;28;20469;-86
2021/05/13 10:16:02;;;;;;;8.75;2.65;;;;;;;18.62;68.66;100651.56;5223105;28;20033;-86
2021/05/13 10:18:39;;;;;;;4.65;1.63;;;;;;;18.87;65.44;100648.78;5223449;28;20017;-86
2021/05/13 10:21:17;;;;;;;4.13;1.60;;;;;;;18.86;62.99;100643.59;5223214;28;20056;-86
2021/05/13 10:23:49;;;;;;;8.60;1.85;;;;;;;18.66;67.30;100651.09;5222467;28;20540;-84
2021/05/13 10:26:29;;;;;;;7.57;2.05;;;;;;;18.64;75.11;100644.00;5223136;28;20025;-85
2021/05/13 10:29:00;;;;;;;4.82;1.85;;;;;;;18.81;67.83;100646.97;5223088;28;20396;-85
2021/05/13 10:31:35;;;;;;;5.68;1.83;;;;;;;18.67;65.04;100641.88;5224059;28;20032;-86
2021/05/13 10:34:07;;;;;;;6.75;1.63;;;;;;;18.52;63.25;100636.78;5223781;28;20479;-86
2021/05/13 10:36:38;;;;;;;6.47;2.28;;;;;;;18.29;70.15;100646.41;5222932;28;20447;-86
2021/05/13 10:39:11;;;;;;;8.35;1.90;;;;;;;18.42;74.43;100639.19;5223912;28;20067;-86
2021/05/13 10:41:42;;;;;;;8.02;2.13;;;;;;;18.81;71.04;100638.00;5223559;28;20427;-86
2021/05/13 10:44:13;;;;;;;8.77;1.73;;;;;;;19.17;65.20;100637.16;5222733;28;20018;-86
2021/05/13 10:46:53;;;;;;;9.80;2.10;;;;;;;18.71;62.12;100635.81;5222110;28;20067;-86
2021/05/13 10:49:25;;;;;;;9.90;1.90;;;;;;;19.15;64.31;100634.69;5226778;28;20526;-87
2021/05/13 10:52:15;;;;;;;8.18;1.85;;;;;;;19.31;67.13;100632.41;5227626;28;20028;-86
2021/05/13 10:54:46;;;;;;;4.78;1.73;;;;;;;19.65;66.90;100629.03;5227150;28;20028;-87
2021/05/13 10:57:20;;;;;;;11.23;1.77;;;;;;;19.98;62.00;100630.44;5226975;28;20431;-87
2021/05/13 11:00:04;;;;;;;9.75;1.70;;;;;;;20.06;58.24;100632.81;5227112;28;20617;-87
2021/05/13 11:02:45;;;;;;;10.68;2.13;;;;;;;20.36;58.15;100635.44;5227348;28;20028;-87
2021/05/13 11:05:27;;;;;;;7.22;2.03;;;;;;;20.11;56.59;100627.47;5226456;28;20035;-87
2021/05/13 11:08:10;;;;;;;11.60;1.95;;;;;;;20.35;55.33;100630.25;5227182;28;20102;-87
2021/05/13 11:10:50;;;;;;;7.82;2.00;;;;;;;20.57;55.48;100619.59;5226829;28;20029;-87
2021/05/13 11:13:21;;;;;;;9.43;1.65;;;;;;;20.80;56.59;100626.94;5225253;28;20029;-88
2021/05/13 11:15:53;;;;;;;10.07;2.67;;;;;;;21.18;55.19;100618.19;5226660;28;20530;-87
2021/05/13 11:18:25;;;;;;;4.53;1.63;;;;;;;21.35;52.90;100621.88;5226059;28;20016;-87
2021/05/13 11:20:57;;;;;;;5.68;1.85;;;;;;;21.50;54.61;100620.50;5226367;28;20028;-87
2021/05/13 11:23:32;;;;;;;10.05;1.80;;;;;;;21.86;56.65;100622.81;5226691;28;20446;-87
2021/05/13 11:26:07;;;;;;;4.32;1.38;;;;;;;22.26;54.23;100616.41;5226612;28;20025;-87
2021/05/13 11:28:42;;;;;;;7.60;1.90;;;;;;;22.36;53.02;100622.03;5226227;28;20041;-87
2021/05/13 11:31:21;;;;;;;6.55;2.08;;;;;;;21.72;49.88;100610.53;5226689;28;20021;-88
2021/05/13 11:33:55;;;;;;;7.10;1.48;;;;;;;21.99;53.59;100605.28;5226162;28;20565;-87
2021/05/13 11:36:38;;;;;;;8.63;1.92;;;;;;;22.36;51.51;100608.38;5226309;28;20037;-88
2021/05/13 11:39:13;;;;;;;8.73;1.70;;;;;;;22.12;49.47;100604.16;5225156;28;20061;-87
2021/05/13 11:41:46;;;;;;;6.07;1.95;;;;;;;22.00;52.60;100597.91;5226028;28;20071;-87
2021/05/13 11:44:21;;;;;;;4.55;1.75;;;;;;;22.05;49.97;100601.56;5225350;28;20029;-87
2021/05/13 11:46:52;;;;;;;8.52;1.52;;;;;;;21.95;48.62;100596.75;5226013;28;20021;-87